createdAt,value
2023-04-20T00:01:24.829Z,9.90
2023-04-20T00:03:51.901Z,9.90
2023-04-20T00:06:18.859Z,9.90
2023-04-20T00:08:45.522Z,9.90
2023-04-20T00:11:12.168Z,9.80
2023-04-20T00:13:38.829Z,9.70
2023-04-20T00:16:06.036Z,9.70
2023-04-20T00:18:32.690Z,9.60
2023-04-20T00:20:59.673Z,9.30
2023-04-20T00:23:26.318Z,9.10
2023-04-20T00:25:52.945Z,9.00
2023-04-20T00:28:19.570Z,9.10
2023-04-20T00:30:46.368Z,9.10
2023-04-20T00:33:13.019Z,9.10
2023-04-20T00:35:39.660Z,9.10
2023-04-20T00:38:06.306Z,9.10
2023-04-20T00:40:33.490Z,9.10
2023-04-20T00:43:12.599Z,9.00
2023-04-20T00:45:39.424Z,9.00
2023-04-20T00:48:06.574Z,8.90
2023-04-20T00:50:34.483Z,9.00
2023-04-20T00:53:02.956Z,9.00
2023-04-20T00:55:30.639Z,9.00
2023-04-20T00:57:58.191Z,9.00
2023-04-20T01:00:26.048Z,9.00
2023-04-20T01:02:52.903Z,9.00
2023-04-20T01:05:21.043Z,9.00
2023-04-20T01:07:47.635Z,8.90
2023-04-20T01:10:14.349Z,8.90
2023-04-20T01:12:41.046Z,8.80
2023-04-20T01:15:08.768Z,8.90
2023-04-20T01:17:39.713Z,8.90
2023-04-20T01:20:14.870Z,8.90
2023-04-20T01:22:54.220Z,8.90
2023-04-20T01:25:21.443Z,8.80
2023-04-20T01:27:48.577Z,8.80
2023-04-20T01:30:17.069Z,8.80
2023-04-20T01:32:44.486Z,8.80
2023-04-20T01:35:11.281Z,8.80
2023-04-20T01:37:39.400Z,8.80
2023-04-20T01:40:08.676Z,8.90
2023-04-20T01:42:35.542Z,8.90
2023-04-20T01:45:02.341Z,8.90
2023-04-20T01:47:31.666Z,8.90
2023-04-20T01:49:58.402Z,8.90
2023-04-20T01:52:25.216Z,9.00
2023-04-20T01:54:52.061Z,9.00
2023-04-20T01:57:18.681Z,9.00
2023-04-20T01:59:45.429Z,9.00
2023-04-20T02:02:12.069Z,8.90
2023-04-20T02:04:38.743Z,8.90
2023-04-20T02:07:05.472Z,8.90
2023-04-20T02:09:32.141Z,8.80
2023-04-20T02:11:58.723Z,8.80
2023-04-20T02:14:25.301Z,8.80
2023-04-20T02:16:53.361Z,8.80
2023-04-20T02:19:20.118Z,8.80
2023-04-20T02:21:46.734Z,8.80
2023-04-20T02:24:13.350Z,8.80
2023-04-20T02:26:39.999Z,8.70
2023-04-20T02:29:06.823Z,8.70
2023-04-20T02:31:34.326Z,8.70
2023-04-20T02:34:01.026Z,8.70
2023-04-20T02:36:28.153Z,8.70
2023-04-20T02:38:54.760Z,8.70
2023-04-20T02:41:21.375Z,8.70
2023-04-20T02:43:47.993Z,8.70
2023-04-20T02:46:14.998Z,8.70
2023-04-20T02:48:41.796Z,8.60
2023-04-20T02:51:08.967Z,8.60
2023-04-20T02:53:35.803Z,8.60
2023-04-20T02:56:02.550Z,8.50
2023-04-20T02:58:29.194Z,8.50
2023-04-20T03:01:00.478Z,8.50
2023-04-20T03:03:28.612Z,8.50
2023-04-20T03:05:56.769Z,8.50
2023-04-20T03:08:23.555Z,8.40
2023-04-20T03:10:50.178Z,8.40
2023-04-20T03:13:16.806Z,8.40
2023-04-20T03:15:44.188Z,8.30
2023-04-20T03:18:10.888Z,8.30
2023-04-20T03:20:37.561Z,8.30
2023-04-20T03:23:04.168Z,8.30
2023-04-20T03:25:30.990Z,8.30
2023-04-20T03:27:57.716Z,8.30
2023-04-20T03:30:24.347Z,8.30
2023-04-20T03:32:51.035Z,8.30
2023-04-20T03:35:17.888Z,8.30
2023-04-20T03:37:44.597Z,8.30
2023-04-20T03:40:11.761Z,8.30
2023-04-20T03:42:38.392Z,8.30
2023-04-20T03:45:06.603Z,8.30
2023-04-20T03:47:33.408Z,8.30
2023-04-20T03:50:00.041Z,8.30
2023-04-20T03:52:26.723Z,8.40
2023-04-20T03:54:53.354Z,8.40
2023-04-20T03:57:20.074Z,8.40
2023-04-20T03:59:46.704Z,8.40
2023-04-20T04:02:13.508Z,8.40
2023-04-20T04:04:41.301Z,8.40
2023-04-20T04:07:08.149Z,8.40
2023-04-20T04:09:34.795Z,8.40
2023-04-20T04:12:01.403Z,8.40
2023-04-20T04:14:30.054Z,8.40
2023-04-20T04:16:56.757Z,8.40
2023-04-20T04:19:23.413Z,8.30
2023-04-20T04:21:50.047Z,8.30
2023-04-20T04:24:17.440Z,8.40
2023-04-20T04:26:44.353Z,8.30
2023-04-20T04:29:11.313Z,8.30
2023-04-20T04:31:37.977Z,8.30
2023-04-20T04:34:04.650Z,8.30
2023-04-20T04:36:32.064Z,8.30
2023-04-20T04:38:59.110Z,8.30
2023-04-20T04:41:25.780Z,8.20
2023-04-20T04:43:53.400Z,8.20
2023-04-20T04:46:21.055Z,8.20
2023-04-20T04:48:47.680Z,8.20
2023-04-20T04:51:14.298Z,8.20
2023-04-20T04:53:44.926Z,8.20
2023-04-20T04:56:11.648Z,8.20
2023-04-20T04:58:38.266Z,8.20
2023-04-20T05:01:05.155Z,8.20
2023-04-20T05:03:32.174Z,8.10
2023-04-20T05:05:58.931Z,8.10
2023-04-20T05:08:25.588Z,8.00
2023-04-20T05:10:52.211Z,8.00
2023-04-20T05:13:18.847Z,8.00
2023-04-20T05:15:45.494Z,7.90
2023-04-20T05:18:12.079Z,7.90
2023-04-20T05:20:38.760Z,7.80
2023-04-20T05:23:05.414Z,7.80
2023-04-20T05:25:32.772Z,7.80
2023-04-20T05:27:59.679Z,7.80
2023-04-20T05:30:26.456Z,7.80
2023-04-20T05:32:53.115Z,7.80
2023-04-20T05:35:20.443Z,7.80
2023-04-20T05:37:47.822Z,7.80
2023-04-20T05:40:15.421Z,7.80
2023-04-20T05:42:42.115Z,7.80
2023-04-20T05:45:09.436Z,7.90
2023-04-20T05:47:36.184Z,7.90
2023-04-20T05:50:02.817Z,7.90
2023-04-20T05:52:29.450Z,8.00
2023-04-20T05:54:56.308Z,8.00
2023-04-20T05:57:24.387Z,8.00
2023-04-20T05:59:51.288Z,8.00
2023-04-20T06:02:17.986Z,8.00
2023-04-20T06:04:44.923Z,8.00
2023-04-20T06:07:11.658Z,8.00
2023-04-20T06:09:38.340Z,8.10
2023-04-20T06:12:05.356Z,8.10
2023-04-20T06:14:31.969Z,8.10
2023-04-20T06:16:59.381Z,8.00
2023-04-20T06:19:26.284Z,8.10
2023-04-20T06:21:52.955Z,8.10
2023-04-20T06:24:19.619Z,8.10
2023-04-20T06:26:46.193Z,8.10
2023-04-20T06:29:12.839Z,8.10
2023-04-20T06:31:39.451Z,8.10
2023-04-20T06:34:06.105Z,8.20
2023-04-20T06:36:32.814Z,8.20
2023-04-20T06:38:59.475Z,8.30
2023-04-20T06:41:26.124Z,8.30
2023-04-20T06:43:52.767Z,8.40
2023-04-20T06:46:19.520Z,8.40
2023-04-20T06:48:46.299Z,8.50
2023-04-20T06:51:14.145Z,8.60
2023-04-20T06:53:40.855Z,8.60
2023-04-20T06:56:07.958Z,8.60
2023-04-20T06:58:34.638Z,8.60
2023-04-20T07:01:02.382Z,8.60
2023-04-20T07:03:29.468Z,8.70
2023-04-20T07:05:56.206Z,8.80
2023-04-20T07:08:23.196Z,8.80
2023-04-20T07:10:49.895Z,8.80
2023-04-20T07:13:16.669Z,8.80
2023-04-20T07:15:45.348Z,8.80
2023-04-20T07:18:12.306Z,8.80
2023-04-20T07:20:39.031Z,8.90
2023-04-20T07:23:05.752Z,8.90
2023-04-20T07:25:32.904Z,8.90
2023-04-20T07:27:59.666Z,8.90
2023-04-20T07:30:26.478Z,8.90
2023-04-20T07:32:53.191Z,8.90
2023-04-20T07:35:19.902Z,8.90
2023-04-20T07:37:47.401Z,8.90
2023-04-20T07:40:14.361Z,8.80
2023-04-20T07:42:41.248Z,8.80
2023-04-20T07:45:09.174Z,8.80
2023-04-20T07:47:36.716Z,8.80
2023-04-20T07:50:05.106Z,8.80
2023-04-20T07:52:31.894Z,8.80
2023-04-20T07:54:59.486Z,8.90
2023-04-20T07:57:26.983Z,8.90
2023-04-20T07:59:53.621Z,8.90
2023-04-20T08:02:20.760Z,8.90
2023-04-20T08:04:49.057Z,8.90
2023-04-20T08:07:15.924Z,8.90
2023-04-20T08:09:42.603Z,9.00
2023-04-20T08:12:09.312Z,9.00
2023-04-20T08:14:35.908Z,9.00
2023-04-20T08:17:02.535Z,9.00
2023-04-20T08:19:29.175Z,9.00
2023-04-20T08:21:56.037Z,9.10
2023-04-20T08:24:22.712Z,9.10
2023-04-20T08:26:49.535Z,9.10
2023-04-20T08:29:16.300Z,9.20
2023-04-20T08:31:43.170Z,9.20
2023-04-20T08:34:09.938Z,9.20
2023-04-20T08:36:36.689Z,9.20
2023-04-20T08:39:12.048Z,9.10
2023-04-20T08:41:38.773Z,9.10
2023-04-20T08:44:05.737Z,9.10
2023-04-20T08:46:34.102Z,9.10
2023-04-20T08:49:03.408Z,9.10
2023-04-20T08:51:32.350Z,9.20
2023-04-20T08:54:05.581Z,9.20
2023-04-20T08:56:36.147Z,9.20
2023-04-20T08:59:04.436Z,9.20
2023-04-20T09:01:35.595Z,9.30
2023-04-20T09:04:14.806Z,9.20
2023-04-20T09:06:44.658Z,9.30
2023-04-20T09:09:11.609Z,9.30
2023-04-20T09:11:38.228Z,9.30
2023-04-20T09:14:16.489Z,9.40
2023-04-20T09:17:04.996Z,9.40
2023-04-20T09:19:32.202Z,9.40
2023-04-20T09:22:06.483Z,9.40
2023-04-20T09:24:35.547Z,9.50
2023-04-20T09:27:16.870Z,9.50
2023-04-20T09:29:44.145Z,9.40
2023-04-20T09:32:27.965Z,9.40
2023-04-20T09:34:54.983Z,9.40
2023-04-20T09:37:22.762Z,9.40
2023-04-20T09:39:50.175Z,9.40
2023-04-20T09:42:17.341Z,9.40
2023-04-20T09:44:44.317Z,9.40
2023-04-20T09:47:18.880Z,9.40
2023-04-20T09:49:50.966Z,9.40
2023-04-20T09:52:18.959Z,9.40
2023-04-20T09:54:46.241Z,9.50
2023-04-20T09:57:14.163Z,9.50
2023-04-20T09:59:44.092Z,9.50
2023-04-20T10:02:12.538Z,9.50
2023-04-20T10:04:59.733Z,9.50
2023-04-20T10:07:31.903Z,9.50
2023-04-20T10:10:13.079Z,9.50
2023-04-20T10:12:56.934Z,9.50
2023-04-20T10:15:24.935Z,9.50
2023-04-20T10:17:51.708Z,9.40
2023-04-20T10:20:24.054Z,9.40
2023-04-20T10:22:55.118Z,9.40
2023-04-20T10:25:24.384Z,9.40
2023-04-20T10:28:00.130Z,9.40
2023-04-20T10:30:28.260Z,9.30
2023-04-20T10:33:08.441Z,9.30
2023-04-20T10:36:01.605Z,9.30
2023-04-20T10:38:29.177Z,9.30
2023-04-20T10:40:56.017Z,9.30
2023-04-20T10:43:23.032Z,9.30
2023-04-20T10:45:50.914Z,9.30
2023-04-20T10:48:18.407Z,9.30
2023-04-20T10:50:45.942Z,9.30
2023-04-20T10:53:23.624Z,9.30
2023-04-20T10:56:00.164Z,9.30
2023-04-20T10:58:27.271Z,9.30
2023-04-20T11:01:03.909Z,9.30
2023-04-20T11:03:32.203Z,9.30
2023-04-20T11:06:03.420Z,9.30
2023-04-20T11:08:56.637Z,9.30
2023-04-20T11:11:27.304Z,9.30
2023-04-20T11:14:09.203Z,9.30
2023-04-20T11:16:48.590Z,9.30
2023-04-20T11:19:24.308Z,9.30
2023-04-20T11:21:50.966Z,9.40
2023-04-20T11:24:26.689Z,9.40
2023-04-20T11:26:54.379Z,9.40
2023-04-20T11:29:35.273Z,9.50
2023-04-20T11:32:07.359Z,9.50
2023-04-20T11:34:35.308Z,9.70
2023-04-20T11:37:06.440Z,9.80
2023-04-20T11:39:33.852Z,9.80
2023-04-20T11:42:01.725Z,9.80
2023-04-20T11:44:28.474Z,9.80
2023-04-20T11:46:57.506Z,9.80
2023-04-20T11:49:26.118Z,9.80
2023-04-20T11:51:53.071Z,9.80
2023-04-20T11:54:19.757Z,9.80
2023-04-20T11:56:46.685Z,9.80
2023-04-20T11:59:19.944Z,9.80
2023-04-20T12:01:47.612Z,9.70
2023-04-20T12:04:15.032Z,9.60
2023-04-20T12:06:42.404Z,9.60
2023-04-20T12:09:09.358Z,9.60
2023-04-20T12:11:36.095Z,9.60
2023-04-20T12:14:02.803Z,9.60
2023-04-20T12:16:29.456Z,9.60
2023-04-20T12:18:56.370Z,9.50
2023-04-20T12:21:22.975Z,9.50
2023-04-20T12:23:52.841Z,9.50
2023-04-20T12:26:19.531Z,9.50
2023-04-20T12:28:46.190Z,9.50
2023-04-20T12:31:12.941Z,9.50
2023-04-20T12:33:39.643Z,9.50
2023-04-20T12:36:06.407Z,9.50
2023-04-20T12:38:34.151Z,9.50
2023-04-20T12:41:00.786Z,9.60
2023-04-20T12:43:28.491Z,9.60
2023-04-20T12:45:55.094Z,9.50
2023-04-20T12:48:21.916Z,9.50
2023-04-20T12:50:48.735Z,9.50
2023-04-20T12:53:15.376Z,9.40
2023-04-20T12:55:42.082Z,9.40
2023-04-20T12:58:08.684Z,9.50
2023-04-20T13:00:35.355Z,9.50
2023-04-20T13:03:02.235Z,9.50
2023-04-20T13:05:29.271Z,9.50
2023-04-20T13:07:56.022Z,9.40
2023-04-20T13:10:22.754Z,9.40
2023-04-20T13:12:51.606Z,9.40
2023-04-20T13:15:31.902Z,9.40
2023-04-20T13:18:05.917Z,9.40
2023-04-20T13:20:32.780Z,9.40
2023-04-20T13:23:01.596Z,9.50
2023-04-20T13:25:29.966Z,9.50
2023-04-20T13:27:56.987Z,9.50
2023-04-20T13:30:24.752Z,9.50
2023-04-20T13:32:51.920Z,9.50
2023-04-20T13:35:18.933Z,9.50
2023-04-20T13:37:46.086Z,9.50
2023-04-20T13:40:13.220Z,9.60
2023-04-20T13:42:39.856Z,9.50
2023-04-20T13:45:07.226Z,9.50
2023-04-20T13:47:34.035Z,9.50
2023-04-20T13:50:02.506Z,9.60
2023-04-20T13:52:29.796Z,9.60
2023-04-20T13:54:56.960Z,9.60
2023-04-20T13:57:24.103Z,9.60
2023-04-20T13:59:52.484Z,9.70
2023-04-20T14:02:19.485Z,9.70
2023-04-20T14:04:46.514Z,9.60
2023-04-20T14:07:13.401Z,9.60
2023-04-20T14:09:40.328Z,9.60
2023-04-20T14:12:07.529Z,9.60
2023-04-20T14:14:34.178Z,9.60
2023-04-20T14:17:01.818Z,9.60
2023-04-20T14:19:28.541Z,9.60
2023-04-20T14:21:55.224Z,9.70
2023-04-20T14:24:21.846Z,9.70
2023-04-20T14:26:50.803Z,9.70
2023-04-20T14:29:17.892Z,9.70
2023-04-20T14:31:44.585Z,9.80
2023-04-20T14:34:13.057Z,9.80
2023-04-20T14:36:39.756Z,9.80
2023-04-20T14:39:06.525Z,9.90
2023-04-20T14:41:34.051Z,9.90
2023-04-20T14:44:00.810Z,9.90
2023-04-20T14:46:27.857Z,9.90
2023-04-20T14:48:54.639Z,9.90
2023-04-20T14:51:21.395Z,9.90
2023-04-20T14:53:48.047Z,9.80
2023-04-20T14:56:14.671Z,9.90
2023-04-20T14:58:42.270Z,9.90
2023-04-20T15:01:08.935Z,9.90
2023-04-20T15:03:36.341Z,9.90
2023-04-20T15:06:03.531Z,9.90
2023-04-20T15:08:30.505Z,9.90
2023-04-20T15:10:57.261Z,9.80
2023-04-20T15:13:24.566Z,9.80
2023-04-20T15:15:54.234Z,9.80
2023-04-20T15:18:21.789Z,9.80
2023-04-20T15:20:50.390Z,9.80
2023-04-20T15:23:17.139Z,9.90
2023-04-20T15:25:43.918Z,9.90
2023-04-20T15:28:11.137Z,9.90
2023-04-20T15:30:37.965Z,9.90
2023-04-20T15:33:05.582Z,10.00
2023-04-20T15:35:33.250Z,10.00
2023-04-20T15:37:59.972Z,10.00
2023-04-20T15:40:27.342Z,10.00
2023-04-20T15:42:57.457Z,10.00
2023-04-20T15:45:25.342Z,10.00
2023-04-20T15:47:52.132Z,10.00
2023-04-20T15:50:18.965Z,9.90
2023-04-20T15:52:49.365Z,9.90
2023-04-20T15:55:16.513Z,9.90
2023-04-20T15:57:44.493Z,9.90
2023-04-20T16:00:12.209Z,9.90
2023-04-20T16:02:40.035Z,10.00
2023-04-20T16:05:07.680Z,10.00
2023-04-20T16:07:34.393Z,10.00
2023-04-20T16:10:02.094Z,10.10
2023-04-20T16:12:29.218Z,10.10
2023-04-20T16:14:57.065Z,10.20
2023-04-20T16:17:23.756Z,10.20
2023-04-20T16:19:50.428Z,10.40
2023-04-20T16:22:17.138Z,10.20
2023-04-20T16:24:43.807Z,10.20
2023-04-20T16:27:10.801Z,10.20
2023-04-20T16:29:37.481Z,10.20
2023-04-20T16:32:04.473Z,10.30
2023-04-20T16:34:31.529Z,10.30
2023-04-20T16:36:58.509Z,10.30
2023-04-20T16:39:25.277Z,10.30
2023-04-20T16:41:52.001Z,10.30
2023-04-20T16:44:18.907Z,10.30
2023-04-20T16:46:50.042Z,10.20
2023-04-20T16:49:17.037Z,10.30
2023-04-20T16:51:43.807Z,10.30
2023-04-20T16:54:11.456Z,10.30
2023-04-20T16:56:38.579Z,10.40
2023-04-20T16:59:05.589Z,10.40
2023-04-20T17:01:32.554Z,10.40
2023-04-20T17:03:59.806Z,10.50
2023-04-20T17:06:27.378Z,10.40
2023-04-20T17:08:58.800Z,10.40
2023-04-20T17:11:26.140Z,10.40
2023-04-20T17:13:52.781Z,10.40
2023-04-20T17:16:20.195Z,10.30
2023-04-20T17:18:46.876Z,10.30
2023-04-20T17:21:13.522Z,10.30
2023-04-20T17:23:41.166Z,10.30
2023-04-20T17:26:08.046Z,10.30
2023-04-20T17:28:34.772Z,10.30
2023-04-20T17:31:01.398Z,10.20
2023-04-20T17:33:28.179Z,10.20
2023-04-20T17:35:56.908Z,10.20
2023-04-20T17:38:24.181Z,10.20
2023-04-20T17:40:50.900Z,10.30
2023-04-20T17:43:17.582Z,10.20
2023-04-20T17:45:44.662Z,10.20
2023-04-20T17:48:11.316Z,10.20
2023-04-20T17:50:37.976Z,10.20
2023-04-20T17:53:06.868Z,10.20
2023-04-20T17:55:34.677Z,10.20
2023-04-20T17:58:01.469Z,10.20
2023-04-20T18:00:28.199Z,10.20
2023-04-20T18:02:55.969Z,10.20
2023-04-20T18:05:22.755Z,10.30
2023-04-20T18:07:49.400Z,10.30
2023-04-20T18:10:16.276Z,10.30
2023-04-20T18:12:43.488Z,10.30
2023-04-20T18:15:10.706Z,10.30
2023-04-20T18:17:37.552Z,10.30
2023-04-20T18:20:05.805Z,10.30
2023-04-20T18:22:33.047Z,10.30
2023-04-20T18:24:59.698Z,10.30
2023-04-20T18:27:26.329Z,10.30
2023-04-20T18:29:53.594Z,10.30
2023-04-20T18:32:20.992Z,10.40
2023-04-20T18:34:47.708Z,10.30
2023-04-20T18:37:14.853Z,10.40
2023-04-20T18:39:41.628Z,10.40
2023-04-20T18:42:08.436Z,10.40
2023-04-20T18:44:35.091Z,10.40
2023-04-20T18:47:02.057Z,10.30
2023-04-20T18:49:30.129Z,10.40
2023-04-20T18:51:56.735Z,10.40
2023-04-20T18:54:23.353Z,10.40
2023-04-20T18:56:50.358Z,10.40
2023-04-20T18:59:17.088Z,10.40
2023-04-20T19:01:43.914Z,10.40
2023-04-20T19:04:10.797Z,10.40
2023-04-20T19:06:37.592Z,10.40
2023-04-20T19:09:06.550Z,10.50
2023-04-20T19:11:34.651Z,10.50
2023-04-20T19:14:01.361Z,10.60
2023-04-20T19:16:31.162Z,10.60
2023-04-20T19:18:58.442Z,10.60
2023-04-20T19:21:25.465Z,10.70
2023-04-20T19:23:52.242Z,10.60
2023-04-20T19:26:19.013Z,10.70
2023-04-20T19:28:48.637Z,10.70
2023-04-20T19:31:15.960Z,10.70
2023-04-20T19:33:42.765Z,10.70
2023-04-20T19:36:10.018Z,10.70
2023-04-20T19:38:38.350Z,10.70
2023-04-20T19:41:06.213Z,10.60
2023-04-20T19:43:32.981Z,10.60
2023-04-20T19:45:59.723Z,10.60
2023-04-20T19:48:26.728Z,10.60
2023-04-20T19:50:56.186Z,10.60
2023-04-20T19:53:23.153Z,10.60
2023-04-20T19:55:50.047Z,10.60
2023-04-20T19:58:16.765Z,10.60
2023-04-20T20:00:43.404Z,10.60
2023-04-20T20:03:12.064Z,10.60
2023-04-20T20:05:38.909Z,10.60
2023-04-20T20:08:05.568Z,10.60
2023-04-20T20:10:32.539Z,10.60
2023-04-20T20:12:59.245Z,10.60
2023-04-20T20:15:25.916Z,10.50
2023-04-20T20:17:55.338Z,10.50
2023-04-20T20:20:22.728Z,10.50
2023-04-20T20:22:50.315Z,10.50
2023-04-20T20:25:20.146Z,10.40
2023-04-20T20:27:46.774Z,10.40
2023-04-20T20:30:15.126Z,10.50
2023-04-20T20:32:41.955Z,10.40
2023-04-20T20:35:11.479Z,10.40
2023-04-20T20:37:38.734Z,10.40
2023-04-20T20:40:07.116Z,10.40
2023-04-20T20:42:34.075Z,10.40
2023-04-20T20:45:01.233Z,10.40
2023-04-20T20:47:27.921Z,10.40
2023-04-20T20:49:54.621Z,10.50
2023-04-20T20:52:22.052Z,10.50
2023-04-20T20:54:48.765Z,10.50
2023-04-20T20:57:15.406Z,10.60
2023-04-20T20:59:42.095Z,10.60
2023-04-20T21:02:08.797Z,10.60
2023-04-20T21:04:38.968Z,10.60
2023-04-20T21:07:05.753Z,10.60
2023-04-20T21:09:33.103Z,10.60
2023-04-20T21:12:00.694Z,10.60
2023-04-20T21:14:27.311Z,10.60
2023-04-20T21:16:54.026Z,10.60
2023-04-20T21:19:20.947Z,10.50
2023-04-20T21:21:47.881Z,10.50
2023-04-20T21:24:14.538Z,10.50
2023-04-20T21:26:41.216Z,10.50
2023-04-20T21:29:08.345Z,10.50
2023-04-20T21:31:35.621Z,10.50
2023-04-20T21:34:02.843Z,10.50
2023-04-20T21:36:30.176Z,10.50
2023-04-20T21:38:57.350Z,10.60
2023-04-20T21:41:26.853Z,10.60
2023-04-20T21:43:53.971Z,10.50
2023-04-20T21:46:21.415Z,10.50
2023-04-20T21:48:48.544Z,10.60
2023-04-20T21:51:16.662Z,10.60
2023-04-20T21:53:45.669Z,10.60
2023-04-20T21:56:15.047Z,10.60
2023-04-20T21:58:42.224Z,10.60
2023-04-20T22:01:09.590Z,10.60
